Time;durP1;ratioP1;P1;durP2;ratioP2;P2;SDS_P1;SDS_P2;PMS_P1;PMS_P2;Temp;Humidity;BMP_temperature;BMP_pressure;BME280_temperature;BME280_humidity;BME280_pressure;Samples;Min_cycle;Max_cycle;Signal;HPM_P1;HPM_P2
2023/10/28 00:00:29;;;;;;;3.40;2.55;;;;;;;9.68;100.00;96357.63;1225793;75;2917817;-76
2023/10/28 00:03:02;;;;;;;3.80;2.30;;;;;;;9.72;100.00;96362.84;1224189;75;2967908;-76
2023/10/28 00:05:34;;;;;;;3.10;1.90;;;;;;;9.73;100.00;96376.00;1225845;75;2911369;-80
2023/10/28 00:08:08;;;;;;;2.55;1.90;;;;;;;9.91;100.00;96382.91;1225651;75;2922956;-78
2023/10/28 00:10:41;;;;;;;2.40;1.40;;;;;;;9.94;100.00;96379.19;1221903;75;3005696;-76
2023/10/28 00:13:14;;;;;;;2.00;1.60;;;;;;;10.19;100.00;96379.31;1226111;75;2914080;-81
2023/10/28 00:15:49;;;;;;;2.55;1.95;;;;;;;10.22;100.00;96368.13;1225537;75;2920892;-74
2023/10/28 00:18:22;;;;;;;2.40;1.55;;;;;;;10.33;100.00;96361.88;1224976;75;2921986;-73
2023/10/28 00:20:55;;;;;;;1.70;1.30;;;;;;;9.99;100.00;96359.28;1225419;75;2926046;-78
2023/10/28 00:23:27;;;;;;;3.05;2.00;;;;;;;9.77;100.00;96351.16;1223709;75;2983534;-77
2023/10/28 00:26:05;;;;;;;3.30;1.70;;;;;;;9.96;100.00;96349.34;1221156;75;3036905;-73
2023/10/28 00:28:39;;;;;;;2.00;1.40;;;;;;;10.17;100.00;96355.22;1224904;75;2913693;-76
2023/10/28 00:31:22;;;;;;;1.75;1.30;;;;;;;10.22;100.00;96351.72;1225715;75;2911366;-75
2023/10/28 00:33:54;;;;;;;1.40;1.25;;;;;;;10.37;100.00;96345.94;1214078;75;3863361;-79
2023/10/28 00:36:27;;;;;;;1.55;1.20;;;;;;;10.24;100.00;96348.47;1225229;75;2918021;-79
2023/10/28 00:39:00;;;;;;;1.45;1.20;;;;;;;10.36;100.00;96340.97;1225132;75;2914169;-76
2023/10/28 00:41:33;;;;;;;0.85;0.80;;;;;;;10.24;100.00;96343.00;1223492;75;2990426;-78
2023/10/28 00:44:05;;;;;;;4.00;1.50;;;;;;;9.62;100.00;96343.25;1226704;75;2911011;-75
2023/10/28 00:46:41;;;;;;;3.55;2.00;;;;;;;9.56;100.00;96348.72;1225799;75;2918838;-76
2023/10/28 00:49:14;;;;;;;3.50;2.25;;;;;;;9.77;100.00;96362.09;1225882;75;2916576;-79
2023/10/28 00:51:48;;;;;;;2.20;1.80;;;;;;;9.93;100.00;96355.84;1224256;75;2993858;-73
2023/10/28 00:54:21;;;;;;;2.45;1.85;;;;;;;9.77;100.00;96362.81;1223897;75;2936131;-73
2023/10/28 00:56:55;;;;;;;2.50;1.70;;;;;;;9.71;100.00;96369.56;1226582;75;2912689;-76
2023/10/28 00:59:27;;;;;;;3.50;2.40;;;;;;;9.69;100.00;96374.78;1222348;75;3088126;-78
2023/10/28 01:02:03;;;;;;;3.90;2.70;;;;;;;9.72;100.00;96371.78;1221106;75;3114571;-77
2023/10/28 01:04:35;;;;;;;2.65;1.95;;;;;;;9.76;100.00;96369.53;1207691;75;4016153;-78
2023/10/28 01:07:09;;;;;;;2.90;1.90;;;;;;;9.41;100.00;96356.47;1214593;75;3170163;-77
2023/10/28 01:09:49;;;;;;;3.10;2.00;;;;;;;9.16;100.00;96360.94;1220863;75;2895440;-78
2023/10/28 01:12:23;;;;;;;2.30;1.55;;;;;;;9.44;100.00;96360.19;1221912;75;2952061;-77
2023/10/28 01:14:56;;;;;;;1.60;1.50;;;;;;;9.70;100.00;96368.81;1221376;75;2938964;-74
2023/10/28 01:17:32;;;;;;;4.60;2.10;;;;;;;9.27;100.00;96362.94;1220017;75;3046040;-80
2023/10/28 01:20:05;;;;;;;4.00;1.75;;;;;;;9.30;100.00;96370.88;1221988;75;3020528;-76
2023/10/28 01:22:40;;;;;;;5.70;2.45;;;;;;;9.20;100.00;96360.72;1210094;75;3890894;-76
2023/10/28 01:25:13;;;;;;;4.00;2.10;;;;;;;9.17;100.00;96367.91;1223050;75;3056520;-77
2023/10/28 01:27:45;;;;;;;2.55;1.80;;;;;;;9.36;100.00;96366.16;1223286;75;3035185;-75
2023/10/28 01:30:18;;;;;;;3.20;1.90;;;;;;;9.50;100.00;96366.38;1211717;75;3917262;-78
2023/10/28 01:32:51;;;;;;;2.40;1.70;;;;;;;9.62;100.00;96356.16;1222522;75;3098829;-75
2023/10/28 01:35:23;;;;;;;2.30;1.70;;;;;;;9.72;100.00;96357.38;1226028;75;2921598;-77
2023/10/28 01:37:59;;;;;;;1.50;1.20;;;;;;;9.82;100.00;96348.41;1221751;75;3046275;-79
2023/10/28 01:40:31;;;;;;;1.45;1.10;;;;;;;9.73;100.00;96335.00;1225018;75;2918239;-74
2023/10/28 01:43:04;;;;;;;1.60;1.40;;;;;;;9.70;100.00;96338.75;1225678;75;2921573;-78
2023/10/28 01:45:37;;;;;;;1.40;1.10;;;;;;;9.85;100.00;96340.44;1225156;75;2924734;-78
2023/10/28 01:48:10;;;;;;;1.20;1.10;;;;;;;9.84;100.00;96339.72;1209986;75;3909406;-77
2023/10/28 01:50:42;;;;;;;1.45;1.10;;;;;;;9.57;100.00;96352.97;1225391;75;2925647;-74
2023/10/28 01:53:18;;;;;;;1.85;1.20;;;;;;;9.51;100.00;96356.94;1225299;75;2911736;-75
2023/10/28 01:55:50;;;;;;;1.70;1.15;;;;;;;9.65;100.00;96366.84;1225449;75;2918978;-73
2023/10/28 01:58:23;;;;;;;1.50;1.20;;;;;;;9.57;100.00;96357.66;1222997;75;2922942;-78
2023/10/28 02:00:55;;;;;;;1.35;0.90;;;;;;;9.83;100.00;96371.00;1224366;75;2917742;-76
2023/10/28 02:03:28;;;;;;;1.25;1.05;;;;;;;9.70;100.00;96374.28;1225371;75;2914842;-76
2023/10/28 02:06:01;;;;;;;0.90;0.80;;;;;;;9.79;100.00;96378.75;1224171;75;2965417;-76
2023/10/28 02:08:36;;;;;;;3.15;0.80;;;;;;;9.73;100.00;96376.00;1206394;75;4378130;-76
2023/10/28 02:11:08;;;;;;;0.70;0.70;;;;;;;9.76;100.00;96377.72;1224280;75;2920032;-75
2023/10/28 02:13:41;;;;;;;0.65;0.65;;;;;;;9.76;100.00;96385.91;1225430;75;2916637;-79
2023/10/28 02:16:14;;;;;;;2.60;0.80;;;;;;;9.57;100.00;96399.41;1224429;75;2934026;-78
2023/10/28 02:18:47;;;;;;;1.15;0.80;;;;;;;9.42;100.00;96395.44;1225859;75;2916247;-79
2023/10/28 02:21:20;;;;;;;0.75;0.70;;;;;;;9.57;100.00;96393.94;1221602;75;3046595;-76
2023/10/28 02:23:56;;;;;;;1.00;0.90;;;;;;;9.58;100.00;96392.69;1225930;75;2916831;-79
2023/10/28 02:26:28;;;;;;;0.90;0.80;;;;;;;9.73;100.00;96399.84;1222636;75;2921136;-79
2023/10/28 02:29:01;;;;;;;0.75;0.60;;;;;;;9.82;100.00;96397.59;1224265;75;2927565;-77
2023/10/28 02:31:34;;;;;;;1.45;0.80;;;;;;;9.63;100.00;96393.19;1223822;75;2963205;-80
2023/10/28 02:34:11;;;;;;;0.60;0.50;;;;;;;9.73;100.00;96395.13;1222566;75;2977297;-77
2023/10/28 02:36:44;;;;;;;0.50;0.50;;;;;;;9.76;100.00;96388.66;1226843;75;2915919;-79
2023/10/28 02:39:20;;;;;;;1.10;0.70;;;;;;;9.80;100.00;96383.69;1224752;75;2919118;-75
2023/10/28 02:41:52;;;;;;;0.60;0.60;;;;;;;9.78;100.00;96388.91;1217062;75;3049945;-77
2023/10/28 02:44:25;;;;;;;0.50;0.50;;;;;;;9.52;100.00;96383.75;1226203;75;2914679;-75
2023/10/28 02:46:58;;;;;;;2.30;1.20;;;;;;;9.44;100.00;96384.75;1225287;75;2926710;-80
2023/10/28 02:49:30;;;;;;;1.25;1.10;;;;;;;9.50;100.00;96380.03;1225601;75;2915509;-77
2023/10/28 02:52:03;;;;;;;1.60;1.20;;;;;;;9.74;100.00;96379.47;1220978;75;3025059;-77
2023/10/28 02:54:39;;;;;;;2.70;1.30;;;;;;;9.72;100.00;96396.38;1226202;75;2916416;-74
2023/10/28 02:57:12;;;;;;;1.75;1.35;;;;;;;9.60;100.00;96397.66;1225611;75;2923295;-74
2023/10/28 02:59:45;;;;;;;1.85;1.40;;;;;;;9.36;100.00;96406.38;1225827;75;2919965;-74
2023/10/28 03:02:16;;;;;;;2.25;1.45;;;;;;;9.63;100.00;96407.59;1225504;75;2926110;-78
2023/10/28 03:04:49;;;;;;;2.45;1.60;;;;;;;9.17;100.00;96439.63;1225573;75;2918792;-78
2023/10/28 03:07:21;;;;;;;1.90;1.35;;;;;;;9.10;100.00;96442.88;1222799;75;3080398;-75
2023/10/28 03:09:56;;;;;;;4.75;1.70;;;;;;;9.21;100.00;96433.19;1222379;75;3028744;-77
2023/10/28 03:12:29;;;;;;;2.45;1.75;;;;;;;9.31;100.00;96429.72;1223113;75;2926814;-78
2023/10/28 03:15:02;;;;;;;1.70;1.20;;;;;;;9.45;100.00;96430.69;1225871;75;2913588;-74
2023/10/28 03:17:35;;;;;;;1.90;1.40;;;;;;;9.57;100.00;96426.72;1225611;75;2921531;-79
2023/10/28 03:20:18;;;;;;;1.40;1.20;;;;;;;9.52;100.00;96423.97;1221754;75;3052075;-76
2023/10/28 03:22:51;;;;;;;3.75;1.25;;;;;;;9.16;100.00;96440.88;1224738;75;2927597;-74
2023/10/28 03:25:27;;;;;;;1.80;1.40;;;;;;;9.21;100.00;96449.56;1222056;75;2983528;-79
2023/10/28 03:28:00;;;;;;;1.90;1.60;;;;;;;8.78;100.00;96442.31;1223602;75;2922728;-79
2023/10/28 03:30:32;;;;;;;4.80;2.00;;;;;;;9.04;100.00;96438.63;1225028;75;2916222;-77
2023/10/28 03:33:05;;;;;;;1.50;1.40;;;;;;;9.30;100.00;96433.69;1223141;75;2935544;-76
2023/10/28 03:35:38;;;;;;;1.80;1.30;;;;;;;9.30;100.00;96430.94;1221068;75;3096991;-79
2023/10/28 03:38:10;;;;;;;1.55;1.20;;;;;;;9.30;100.00;96422.00;1224156;75;2922535;-70
2023/10/28 03:40:46;;;;;;;1.70;1.40;;;;;;;9.27;100.00;96433.94;1221597;75;3037571;-78
2023/10/28 03:43:18;;;;;;;1.30;1.20;;;;;;;9.08;100.00;96436.41;1223925;75;2931005;-79
2023/10/28 03:45:51;;;;;;;1.60;1.40;;;;;;;9.27;100.00;96442.88;1223100;75;2952291;-78
2023/10/28 03:48:24;;;;;;;2.05;1.30;;;;;;;9.13;100.00;96443.84;1224249;75;2931007;-80
2023/10/28 03:51:01;;;;;;;1.90;1.30;;;;;;;9.02;100.00;96452.78;1210515;75;3915009;-75
2023/10/28 03:53:34;;;;;;;3.05;1.90;;;;;;;8.99;100.00;96453.75;1225445;75;2916198;-76
2023/10/28 03:56:10;;;;;;;4.75;2.90;;;;;;;8.59;100.00;96457.66;1223361;75;2952300;-75
2023/10/28 03:58:43;;;;;;;4.10;2.75;;;;;;;8.50;100.00;96458.63;1222698;75;2995635;-79
2023/10/28 04:01:16;;;;;;;2.70;2.00;;;;;;;8.95;100.00;96456.75;1224706;75;2937465;-80
2023/10/28 04:03:49;;;;;;;3.90;2.20;;;;;;;8.57;100.00;96454.69;1223140;75;2920427;-74
2023/10/28 04:06:21;;;;;;;3.95;2.85;;;;;;;8.84;100.00;96450.53;1217245;75;3105971;-74
2023/10/28 04:08:55;;;;;;;2.65;2.15;;;;;;;9.01;100.00;96459.47;1225534;75;2927809;-78
2023/10/28 04:11:30;;;;;;;4.30;2.05;;;;;;;8.60;100.00;96459.13;1224207;75;2923092;-77
2023/10/28 04:14:03;;;;;;;3.85;3.10;;;;;;;8.53;100.00;96469.28;1225114;75;2924136;-81
2023/10/28 04:16:36;;;;;;;5.40;2.60;;;;;;;8.67;100.00;96462.13;1221388;75;3007609;-78
2023/10/28 04:19:08;;;;;;;2.85;1.90;;;;;;;8.96;100.00;96463.69;1221548;75;2945183;-77
2023/10/28 04:21:41;;;;;;;2.95;2.05;;;;;;;8.92;100.00;96471.38;1222184;75;3040979;-73
2023/10/28 04:24:14;;;;;;;4.20;3.15;;;;;;;8.65;100.00;96469.31;1224899;75;2918665;-77
2023/10/28 04:26:49;;;;;;;3.15;2.55;;;;;;;8.89;100.00;96466.16;1225422;75;2920940;-75
2023/10/28 04:29:21;;;;;;;2.60;2.15;;;;;;;8.91;100.00;96474.59;1224920;75;2916348;-76
2023/10/28 04:31:54;;;;;;;4.70;3.70;;;;;;;8.65;100.00;96469.31;1221773;75;3095277;-77
2023/10/28 04:34:27;;;;;;;4.60;3.50;;;;;;;8.98;100.00;96471.38;1225154;75;2918012;-78
2023/10/28 04:37:00;;;;;;;3.60;2.55;;;;;;;9.17;100.00;96458.75;1224632;75;2916708;-81
2023/10/28 04:39:32;;;;;;;4.60;2.30;;;;;;;9.16;100.00;96453.78;1208428;75;4064528;-76
2023/10/28 04:42:08;;;;;;;2.45;2.00;;;;;;;9.16;100.00;96460.00;1220913;75;3050658;-75
2023/10/28 04:44:43;;;;;;;2.50;1.90;;;;;;;9.23;100.00;96455.28;1223967;75;2919253;-79
2023/10/28 04:47:16;;;;;;;3.55;2.00;;;;;;;9.18;100.00;96459.50;1226722;75;2912741;-75
2023/10/28 04:49:49;;;;;;;1.80;1.65;;;;;;;9.07;100.00;96457.50;1224774;75;2925158;-77
2023/10/28 04:52:23;;;;;;;4.50;3.25;;;;;;;8.60;100.00;96454.41;1210485;75;3874098;-72
2023/10/28 04:54:55;;;;;;;4.80;4.20;;;;;;;8.63;100.00;96458.16;1218471;75;3107272;-74
2023/10/28 04:57:31;;;;;;;7.40;3.80;;;;;;;8.91;100.00;96467.16;1223131;75;2924186;-76
2023/10/28 05:00:03;;;;;;;3.10;2.80;;;;;;;9.17;100.00;96466.22;1221542;75;3097731;-75
2023/10/28 05:02:36;;;;;;;2.65;2.15;;;;;;;9.11;100.00;96460.72;1221977;75;3064677;-81
2023/10/28 05:05:10;;;;;;;2.25;1.90;;;;;;;9.10;100.00;96463.97;1219283;75;3093746;-78
2023/10/28 05:07:44;;;;;;;2.70;2.10;;;;;;;9.00;100.00;96460.72;1219756;75;3106958;-75
2023/10/28 05:10:16;;;;;;;4.20;1.95;;;;;;;8.78;100.00;96463.38;1217949;75;3126599;-77
2023/10/28 05:12:52;;;;;;;3.85;2.10;;;;;;;8.63;100.00;96474.50;1220926;75;3096619;-77
2023/10/28 05:15:24;;;;;;;3.15;2.25;;;;;;;8.64;100.00;96473.28;1219319;75;3093031;-78
2023/10/28 05:17:57;;;;;;;4.35;1.85;;;;;;;8.66;100.00;96479.75;1224696;75;2939968;-76
2023/10/28 05:20:33;;;;;;;3.10;1.85;;;;;;;8.56;100.00;96481.19;1222697;75;2927790;-75
2023/10/28 05:23:05;;;;;;;3.25;2.15;;;;;;;8.59;100.00;96484.94;1222162;75;2994014;-75
2023/10/28 05:25:38;;;;;;;3.80;2.30;;;;;;;8.75;100.00;96497.88;1225328;75;2924914;-76
2023/10/28 05:28:13;;;;;;;2.95;2.10;;;;;;;8.75;100.00;96500.59;1221316;75;2995718;-76
2023/10/28 05:30:46;;;;;;;4.95;2.10;;;;;;;8.60;100.00;96502.78;1209812;75;4016561;-77
2023/10/28 05:33:18;;;;;;;4.60;2.10;;;;;;;8.52;100.00;96511.44;1221321;75;3026054;-76
2023/10/28 05:35:51;;;;;;;2.60;1.90;;;;;;;8.71;100.00;96516.47;1224545;75;2919334;-75
2023/10/28 05:38:24;;;;;;;2.90;1.70;;;;;;;8.86;100.00;96516.28;1223869;75;2923234;-78
2023/10/28 05:40:57;;;;;;;2.90;1.55;;;;;;;8.94;100.00;96512.56;1225496;75;2927409;-75
2023/10/28 05:43:32;;;;;;;1.45;1.10;;;;;;;9.12;100.00;96514.09;1224874;75;2915235;-76
2023/10/28 05:46:05;;;;;;;1.45;1.10;;;;;;;9.23;100.00;96502.44;1221965;75;3076626;-75
2023/10/28 05:48:38;;;;;;;1.35;0.95;;;;;;;9.32;100.00;96517.84;1222707;75;2972727;-76
2023/10/28 05:51:11;;;;;;;0.95;0.85;;;;;;;9.25;100.00;96515.59;1224549;75;2918364;-74
2023/10/28 05:53:43;;;;;;;1.90;1.30;;;;;;;8.88;100.00;96524.72;1224415;75;2918954;-78
2023/10/28 05:56:17;;;;;;;3.30;1.70;;;;;;;8.84;100.00;96532.38;1221926;75;3092067;-77
2023/10/28 05:58:53;;;;;;;1.85;1.50;;;;;;;8.72;100.00;96537.06;1225143;75;2921774;-74
2023/10/28 06:01:25;;;;;;;1.45;1.35;;;;;;;8.86;100.00;96551.75;1225781;75;2925754;-72
2023/10/28 06:03:59;;;;;;;1.50;1.40;;;;;;;9.01;100.00;96560.47;1224971;75;2921525;-75
2023/10/28 06:06:31;;;;;;;2.40;1.90;;;;;;;8.94;100.00;96560.94;1223429;75;2928636;-75
2023/10/28 06:09:04;;;;;;;3.15;2.10;;;;;;;9.15;100.00;96566.97;1226203;75;2914762;-75
2023/10/28 06:11:37;;;;;;;1.95;1.70;;;;;;;9.53;100.00;96573.75;1221830;75;3093196;-74
2023/10/28 06:14:12;;;;;;;1.85;1.50;;;;;;;9.65;100.00;96579.97;1225331;75;2922766;-77
2023/10/28 06:16:46;;;;;;;2.65;1.70;;;;;;;9.41;100.00;96580.44;1219366;75;3083214;-77
2023/10/28 06:19:21;;;;;;;2.70;2.10;;;;;;;9.63;100.00;96585.19;1207924;75;3993730;-73
2023/10/28 06:21:54;;;;;;;3.60;2.80;;;;;;;9.46;100.00;96590.63;1224811;75;2916992;-75
2023/10/28 06:24:27;;;;;;;3.30;2.60;;;;;;;9.90;100.00;96588.44;1225308;75;2925080;-73
2023/10/28 06:26:59;;;;;;;4.85;3.65;;;;;;;9.62;100.00;96596.59;1222756;75;3000418;-77
2023/10/28 06:29:35;;;;;;;5.05;2.70;;;;;;;9.84;100.00;96596.63;1225470;75;2912841;-77
2023/10/28 06:32:09;;;;;;;3.55;3.15;;;;;;;9.88;100.00;96599.84;1224818;75;2919711;-77
2023/10/28 06:34:42;;;;;;;15.40;13.60;;;;;;;10.21;100.00;96601.84;1222338;75;2963532;-77
2023/10/28 06:37:15;;;;;;;10.90;9.70;;;;;;;10.21;100.00;96607.31;1224595;75;2915250;-76
2023/10/28 06:39:47;;;;;;;6.05;4.65;;;;;;;9.75;100.00;96610.53;1225421;75;2919133;-75
2023/10/28 06:42:20;;;;;;;4.15;3.45;;;;;;;9.65;100.00;96609.28;1222002;75;3024435;-76
2023/10/28 06:44:55;;;;;;;4.85;3.45;;;;;;;9.82;100.00;96601.84;1224240;75;2923840;-75
2023/10/28 06:47:28;;;;;;;4.40;3.40;;;;;;;9.80;100.00;96594.13;1219476;75;3040371;-79
2023/10/28 06:50:04;;;;;;;6.20;5.00;;;;;;;9.91;100.00;96595.38;1223609;75;2941411;-75
2023/10/28 06:52:38;;;;;;;5.90;4.00;;;;;;;10.29;100.00;96606.81;1221280;75;3094691;-77
2023/10/28 06:55:12;;;;;;;4.70;3.70;;;;;;;10.21;100.00;96612.78;1220141;75;3019012;-76
2023/10/28 06:57:45;;;;;;;4.10;3.60;;;;;;;10.46;100.00;96607.53;1225753;75;2917820;-77
2023/10/28 07:00:24;;;;;;;4.00;3.35;;;;;;;10.39;100.00;96605.31;1223421;75;2973615;-75
2023/10/28 07:02:57;;;;;;;2.55;2.20;;;;;;;10.41;100.00;96608.31;1225655;75;2919349;-78
2023/10/28 07:05:30;;;;;;;3.90;2.30;;;;;;;10.57;100.00;96617.75;1222714;75;2967277;-76
2023/10/28 07:08:03;;;;;;;2.90;2.45;;;;;;;10.17;100.00;96636.16;1225231;75;2918701;-72
2023/10/28 07:10:37;;;;;;;4.10;3.20;;;;;;;9.91;100.00;96645.34;1223145;75;2927802;-74
2023/10/28 07:13:09;;;;;;;3.65;2.75;;;;;;;10.04;100.00;96658.53;1224201;75;2927722;-77
2023/10/28 07:15:45;;;;;;;3.45;2.75;;;;;;;10.41;100.00;96676.69;1221961;75;3029591;-73
2023/10/28 07:18:18;;;;;;;4.15;3.00;;;;;;;10.33;100.00;96667.50;1224250;75;2923190;-76
2023/10/28 07:20:50;;;;;;;3.95;3.55;;;;;;;10.17;100.00;96661.53;1225645;75;2924034;-74
2023/10/28 07:23:26;;;;;;;3.80;2.80;;;;;;;10.77;100.00;96663.22;1223496;75;2968328;-70
2023/10/28 07:26:01;;;;;;;3.20;2.50;;;;;;;10.99;100.00;96660.44;1223643;75;2935606;-78
2023/10/28 07:28:35;;;;;;;3.20;2.65;;;;;;;11.21;100.00;96672.56;1223918;75;2915351;-73
2023/10/28 07:31:11;;;;;;;2.25;1.80;;;;;;;11.38;100.00;96667.03;1223622;75;2921092;-75
2023/10/28 07:33:47;;;;;;;2.15;1.70;;;;;;;11.15;100.00;96669.84;1225687;75;2923961;-74
2023/10/28 07:36:20;;;;;;;5.50;2.85;;;;;;;10.91;100.00;96680.63;1224653;75;2917757;-77
2023/10/28 07:38:52;;;;;;;4.10;2.65;;;;;;;11.13;100.00;96682.53;1225594;75;2925460;-76
2023/10/28 07:41:25;;;;;;;2.90;2.20;;;;;;;14.92;95.99;96678.84;1225929;75;2921101;-79
2023/10/28 07:43:57;;;;;;;2.80;2.00;;;;;;;19.18;74.06;96672.19;1225601;75;2921858;-80
2023/10/28 07:46:33;;;;;;;2.20;1.80;;;;;;;19.61;66.92;96667.59;1225146;75;2925767;-79
2023/10/28 07:49:06;;;;;;;2.50;2.00;;;;;;;18.55;68.09;96675.56;1210700;75;3943809;-73
2023/10/28 07:51:38;;;;;;;2.10;1.30;;;;;;;16.13;74.70;96694.69;1225623;75;2917575;-75
2023/10/28 07:54:12;;;;;;;2.30;1.70;;;;;;;14.71;85.91;96692.50;1224146;75;2924332;-78
2023/10/28 07:56:45;;;;;;;2.95;1.10;;;;;;;13.68;94.68;96694.50;1225832;75;2920726;-76
2023/10/28 07:59:17;;;;;;;2.20;1.60;;;;;;;13.48;100.00;96698.50;1222295;75;3073390;-73
2023/10/28 08:01:52;;;;;;;1.85;1.10;;;;;;;13.34;97.41;96694.94;1223935;75;2922497;-77
2023/10/28 08:04:25;;;;;;;2.30;1.40;;;;;;;13.08;100.00;96700.19;1224719;75;2922448;-73
2023/10/28 08:06:58;;;;;;;2.70;1.40;;;;;;;13.79;100.00;96707.38;1224572;75;2913275;-77
2023/10/28 08:09:31;;;;;;;2.15;1.40;;;;;;;13.36;100.00;96717.16;1225193;75;2918542;-75
2023/10/28 08:12:03;;;;;;;1.85;1.35;;;;;;;13.02;100.00;96719.50;1222408;75;3042995;-77
2023/10/28 08:14:36;;;;;;;3.75;2.00;;;;;;;12.59;100.00;96722.88;1225826;75;2918046;-76
2023/10/28 08:17:11;;;;;;;4.20;1.80;;;;;;;12.37;100.00;96729.28;1225476;75;2920388;-77
2023/10/28 08:19:44;;;;;;;4.25;2.50;;;;;;;12.18;100.00;96744.91;1224513;75;2914558;-72
2023/10/28 08:22:17;;;;;;;2.70;1.95;;;;;;;12.30;100.00;96758.03;1225438;75;2921716;-75
2023/10/28 08:24:49;;;;;;;3.40;2.15;;;;;;;12.13;100.00;96765.63;1225546;75;2919046;-77
2023/10/28 08:27:22;;;;;;;3.85;2.55;;;;;;;11.28;100.00;96773.41;1224453;75;2922059;-77
2023/10/28 08:29:56;;;;;;;4.40;2.90;;;;;;;11.19;100.00;96773.69;1224959;75;2928102;-76
2023/10/28 08:32:31;;;;;;;3.45;2.75;;;;;;;11.24;100.00;96770.94;1225716;75;2919524;-77
2023/10/28 08:35:05;;;;;;;3.75;2.65;;;;;;;11.68;100.00;96766.53;1226276;75;2915975;-73
2023/10/28 08:37:38;;;;;;;4.95;3.15;;;;;;;11.54;100.00;96766.84;1223090;75;3074403;-76
2023/10/28 08:40:15;;;;;;;4.45;3.25;;;;;;;11.65;100.00;96777.78;1226134;75;2928205;-76
2023/10/28 08:42:48;;;;;;;3.40;2.50;;;;;;;11.80;100.00;96777.47;1225489;75;2926490;-78
2023/10/28 08:45:24;;;;;;;3.75;2.70;;;;;;;11.88;100.00;96794.91;1226028;75;2921683;-75
2023/10/28 08:48:00;;;;;;;4.45;2.80;;;;;;;11.95;100.00;96805.34;1226491;75;2916985;-75
2023/10/28 08:50:35;;;;;;;6.45;3.05;;;;;;;11.72;100.00;96837.59;1226398;75;2919115;-77
2023/10/28 08:53:09;;;;;;;5.30;3.25;;;;;;;11.39;100.00;96855.59;1227214;75;2914270;-76
2023/10/28 08:55:42;;;;;;;6.35;2.90;;;;;;;11.57;100.00;96854.31;1226222;75;2919166;-74
2023/10/28 08:58:16;;;;;;;3.60;2.35;;;;;;;12.16;100.00;96833.19;1222849;75;3013966;-79
2023/10/28 09:00:50;;;;;;;5.30;2.35;;;;;;;11.78;100.00;96812.88;1225345;75;2920284;-78
2023/10/28 09:03:28;;;;;;;4.45;2.75;;;;;;;11.85;100.00;96809.59;1221711;75;3093229;-72
2023/10/28 09:06:05;;;;;;;2.50;1.30;;;;;;;11.76;100.00;96813.41;1223161;75;2990648;-74
2023/10/28 09:08:38;;;;;;;3.80;1.45;;;;;;;11.81;100.00;96826.34;1224055;75;2922971;-73
2023/10/28 09:11:10;;;;;;;2.55;1.65;;;;;;;11.61;100.00;96819.16;1223313;75;2928584;-73
2023/10/28 09:13:48;;;;;;;1.95;1.50;;;;;;;11.50;100.00;96811.72;1223289;75;2939982;-76
2023/10/28 09:16:20;;;;;;;1.35;0.60;;;;;;;11.44;100.00;96824.69;1223609;75;2923783;-71
2023/10/28 09:18:56;;;;;;;1.85;1.00;;;;;;;11.37;100.00;96818.97;1222790;75;2931796;-73
2023/10/28 09:21:28;;;;;;;2.50;0.75;;;;;;;11.50;100.00;96828.16;1224140;75;2926948;-73
2023/10/28 09:24:03;;;;;;;2.60;1.10;;;;;;;11.57;100.00;96832.41;1223800;75;2925952;-78
2023/10/28 09:26:36;;;;;;;1.95;1.20;;;;;;;11.56;100.00;96830.88;1223679;75;2923692;-77
2023/10/28 09:29:08;;;;;;;3.00;1.75;;;;;;;11.44;100.00;96832.91;1223523;75;2919138;-74
2023/10/28 09:31:41;;;;;;;3.50;1.45;;;;;;;11.38;100.00;96837.66;1224050;75;2926398;-74
2023/10/28 09:34:19;;;;;;;2.55;1.35;;;;;;;11.46;100.00;96849.59;1224896;75;2925281;-73
2023/10/28 09:36:53;;;;;;;1.40;0.90;;;;;;;11.41;100.00;96864.06;1224659;75;2917535;-70
2023/10/28 09:39:26;;;;;;;1.25;0.80;;;;;;;11.69;100.00;96868.75;1222691;75;2957848;-74
2023/10/28 09:42:00;;;;;;;2.75;0.65;;;;;;;11.57;100.00;96867.25;1225004;75;2902553;-75
2023/10/28 09:44:34;;;;;;;2.45;1.60;;;;;;;11.61;100.00;96852.06;1224381;75;2912343;-72
2023/10/28 09:47:08;;;;;;;1.65;1.30;;;;;;;12.32;100.00;96840.59;1226259;75;2915577;-74
2023/10/28 09:49:48;;;;;;;1.45;1.10;;;;;;;12.83;100.00;96840.28;1225513;75;2921649;-72
2023/10/28 09:52:25;;;;;;;1.50;0.95;;;;;;;13.45;100.00;96842.53;1224883;75;2922269;-69
2023/10/28 09:55:06;;;;;;;1.30;0.90;;;;;;;14.29;100.00;96840.81;1224897;75;2924471;-73
2023/10/28 09:57:40;;;;;;;5.60;3.10;;;;;;;13.99;100.00;96833.41;1210697;75;3967846;-75
2023/10/28 10:00:20;;;;;;;4.90;2.20;;;;;;;15.40;92.98;96841.66;1225078;75;2923940;-74
2023/10/28 10:03:08;;;;;;;2.10;1.25;;;;;;;16.42;84.20;96838.44;1225021;75;2924582;-76
2023/10/28 10:05:47;;;;;;;1.85;1.05;;;;;;;16.04;83.33;96847.00;1225052;75;2927158;-74
2023/10/28 10:08:24;;;;;;;1.10;0.85;;;;;;;17.35;75.79;96827.00;1224830;75;2927794;-71
2023/10/28 10:11:01;;;;;;;1.55;0.90;;;;;;;17.91;71.66;96822.00;1225224;75;2925825;-75
2023/10/28 10:13:33;;;;;;;1.05;0.70;;;;;;;19.14;69.83;96814.03;1225437;75;2915848;-74
2023/10/28 10:16:13;;;;;;;1.50;0.80;;;;;;;20.03;68.19;96823.38;1225265;75;2914957;-73
2023/10/28 10:18:53;;;;;;;2.35;1.40;;;;;;;20.43;68.38;96820.59;1224916;75;2924411;-75
2023/10/28 10:21:35;;;;;;;2.85;1.65;;;;;;;20.48;63.71;96823.75;1225875;75;2913316;-72
2023/10/28 10:24:10;;;;;;;2.45;1.40;;;;;;;19.69;64.81;96824.56;1225002;75;2916551;-72
2023/10/28 10:26:42;;;;;;;1.35;1.20;;;;;;;20.68;64.98;96828.28;1225134;75;2913745;-73
2023/10/28 10:29:16;;;;;;;1.45;0.90;;;;;;;18.92;66.04;96826.59;1225354;75;2920593;-77
2023/10/28 10:31:55;;;;;;;3.00;2.00;;;;;;;17.49;75.17;96827.66;1219396;75;2971066;-73
2023/10/28 10:34:39;;;;;;;2.35;1.00;;;;;;;17.72;73.10;96835.34;1224036;75;2922955;-78
2023/10/28 10:37:25;;;;;;;3.40;2.15;;;;;;;17.32;79.08;96843.91;1222473;75;2961193;-71
2023/10/28 10:39:58;;;;;;;1.20;0.60;;;;;;;16.95;79.61;96849.31;1224180;75;2919119;-73
2023/10/28 10:42:30;;;;;;;0.95;0.50;;;;;;;17.16;78.45;96854.13;1224482;75;2916491;-73
2023/10/28 10:45:03;;;;;;;1.25;0.70;;;;;;;17.04;78.69;96861.94;1225441;75;2918097;-73
2023/10/28 10:47:37;;;;;;;1.70;0.90;;;;;;;16.37;81.02;96861.41;1223255;75;2933360;-77
2023/10/28 10:50:12;;;;;;;2.35;1.80;;;;;;;17.04;80.09;96857.16;1223830;75;2923954;-76
2023/10/28 10:52:47;;;;;;;2.20;1.30;;;;;;;15.78;83.93;96858.81;1222379;75;3051990;-74
2023/10/28 10:55:27;;;;;;;1.90;0.60;;;;;;;15.13;88.92;96853.38;1221918;75;3019265;-75
2023/10/28 10:58:00;;;;;;;2.40;1.60;;;;;;;15.32;89.56;96849.81;1226084;75;2922702;-72
2023/10/28 11:00:33;;;;;;;2.05;0.80;;;;;;;15.98;83.99;96851.91;1224789;75;2917597;-73
2023/10/28 11:03:10;;;;;;;1.20;0.40;;;;;;;16.95;77.61;96852.09;1224621;75;2918182;-75
2023/10/28 11:05:46;;;;;;;2.35;0.80;;;;;;;17.02;76.26;96848.66;1225292;75;2924617;-76
2023/10/28 11:08:21;;;;;;;0.95;0.50;;;;;;;17.59;73.57;96850.78;1225617;75;2927399;-74
2023/10/28 11:10:54;;;;;;;0.85;0.40;;;;;;;17.27;72.44;96845.56;1225735;75;2913983;-75
2023/10/28 11:13:27;;;;;;;1.20;0.60;;;;;;;18.02;71.13;96843.13;1225102;75;2926701;-71
2023/10/28 11:16:00;;;;;;;0.70;0.50;;;;;;;18.69;69.04;96841.16;1221442;75;3086275;-75
2023/10/28 11:18:33;;;;;;;0.90;0.60;;;;;;;19.74;62.74;96848.63;1224842;75;2951099;-71
2023/10/28 11:21:07;;;;;;;1.05;0.50;;;;;;;20.15;62.52;96841.09;1225238;75;2920005;-76
2023/10/28 11:23:43;;;;;;;1.00;0.60;;;;;;;19.60;62.49;96830.66;1225427;75;2917305;-77
2023/10/28 11:26:21;;;;;;;0.85;0.50;;;;;;;19.92;61.97;96815.44;1222623;75;3028148;-76
2023/10/28 11:28:55;;;;;;;0.30;0.30;;;;;;;21.25;61.66;96812.88;1225572;75;2918911;-77
2023/10/28 11:31:28;;;;;;;0.90;0.60;;;;;;;20.64;59.20;96802.94;1224206;75;2919228;-74
2023/10/28 11:34:04;;;;;;;1.65;0.70;;;;;;;20.21;60.69;96804.78;1225009;75;2916985;-77
2023/10/28 11:36:36;;;;;;;0.90;0.65;;;;;;;20.27;59.31;96796.97;1225343;75;2914844;-74
2023/10/28 11:39:15;;;;;;;1.75;0.50;;;;;;;20.91;57.19;96805.16;1225155;75;2925159;-77
2023/10/28 11:41:49;;;;;;;0.70;0.60;;;;;;;19.93;59.92;96803.75;1225500;75;2919899;-78
2023/10/28 11:44:28;;;;;;;2.65;0.70;;;;;;;18.90;62.29;96802.19;1225372;75;2922191;-78